Allen, Nebraska
Current Conditions -  °F | °C
As of 8:15 AM on Friday 24 Oct 2014 (Local Time) from KLCG Reporting Station
Haze Haze  
Wind Chill: 53°   Ceiling: Unl
Heat Index: 53°   Visibility: 4mi
Dew Point: 52°   Wind: 0mph
Humidity: 95%   Direction: NA
Pressure: 29.9"   Gusts: NA
Location:  42.42°N, 96.85°W
Report Text: KLCG 241315Z AUTO 00000KT 4SM BR CLR 12/11 A2990 RMK AO2 T01180111
Loading
Personal Weather Stations






























Interactive Weather Map
Tropical Storm Tracking
New forecast layout! Learn more

10-Day Weather Forecast

Advertisements
Track Severe Weather on mobile